createdAt,value
2018-10-19T00:02:03.998Z,13.40
2018-10-19T00:04:30.958Z,13.50
2018-10-19T00:06:57.911Z,11.80
2018-10-19T00:09:24.884Z,13.50
2018-10-19T00:11:51.828Z,13.40
2018-10-19T00:14:18.771Z,13.40
2018-10-19T00:16:46.535Z,13.40
2018-10-19T00:19:13.499Z,13.40
2018-10-19T00:21:40.491Z,13.40
2018-10-19T00:24:07.433Z,14.80
2018-10-19T00:26:34.438Z,13.30
2018-10-19T00:29:01.416Z,13.30
2018-10-19T00:31:28.323Z,13.20
2018-10-19T00:33:55.270Z,13.30
2018-10-19T00:36:22.241Z,13.40
2018-10-19T00:38:49.214Z,13.40
2018-10-19T00:41:16.241Z,13.40
2018-10-19T00:43:43.126Z,13.30
2018-10-19T00:46:10.076Z,13.40
2018-10-19T00:48:37.047Z,13.40
2018-10-19T00:51:04.140Z,13.40
2018-10-19T00:53:31.022Z,13.30
2018-10-19T00:55:57.994Z,12.10
2018-10-19T00:58:25.246Z,13.20
2018-10-19T01:00:52.198Z,13.10
2018-10-19T01:03:19.171Z,13.00
2018-10-19T01:05:46.122Z,12.80
2018-10-19T01:08:13.054Z,12.80
2018-10-19T01:10:40.011Z,12.80
2018-10-19T01:13:06.954Z,12.80
2018-10-19T01:15:33.920Z,12.70
2018-10-19T01:18:01.267Z,12.80
2018-10-19T01:20:28.254Z,12.70
2018-10-19T01:22:55.285Z,9.70
2018-10-19T01:25:22.290Z,12.80
2018-10-19T01:27:49.569Z,12.80
2018-10-19T01:30:16.530Z,12.80
2018-10-19T01:32:43.482Z,12.40
2018-10-19T01:35:11.659Z,12.70
2018-10-19T01:37:38.705Z,12.60
2018-10-19T01:40:18.587Z,12.60
2018-10-19T01:42:45.534Z,12.60
2018-10-19T01:45:12.908Z,12.50
2018-10-19T01:47:40.644Z,12.40
2018-10-19T01:50:08.489Z,12.40
2018-10-19T01:52:35.418Z,12.30
2018-10-19T01:55:02.371Z,12.30
2018-10-19T01:57:29.299Z,10.00
2018-10-19T01:59:56.238Z,12.30
2018-10-19T02:02:23.181Z,12.20
2018-10-19T02:04:50.134Z,12.20
2018-10-19T02:07:17.093Z,12.10
2018-10-19T02:09:44.043Z,12.10
2018-10-19T02:12:10.999Z,12.10
2018-10-19T02:14:38.387Z,12.10
2018-10-19T02:17:05.670Z,12.00
2018-10-19T02:19:33.167Z,12.00
2018-10-19T02:22:00.102Z,12.00
2018-10-19T02:24:27.057Z,12.00
2018-10-19T02:26:54.060Z,12.00
2018-10-19T02:29:20.994Z,11.90
2018-10-19T02:31:48.066Z,12.00
2018-10-19T02:34:15.057Z,11.90
2018-10-19T02:36:42.450Z,11.90
2018-10-19T02:39:09.464Z,11.90
2018-10-19T02:41:43.047Z,11.90
2018-10-19T02:44:09.986Z,11.90
2018-10-19T02:46:36.938Z,11.80
2018-10-19T02:49:04.752Z,11.80
2018-10-19T02:51:31.720Z,11.60
2018-10-19T02:53:58.673Z,11.60
2018-10-19T02:56:25.633Z,11.70
2018-10-19T02:58:52.593Z,11.60
2018-10-19T03:01:19.531Z,11.60
2018-10-19T03:03:46.496Z,11.60
2018-10-19T03:06:13.462Z,11.60
2018-10-19T03:08:40.420Z,11.60
2018-10-19T03:11:07.761Z,11.40
2018-10-19T03:13:34.691Z,11.40
2018-10-19T03:16:01.655Z,11.40
2018-10-19T03:18:28.578Z,11.40
2018-10-19T03:20:56.024Z,11.30
2018-10-19T03:23:22.937Z,11.30
2018-10-19T03:25:49.881Z,11.40
2018-10-19T03:28:16.850Z,11.40
2018-10-19T03:30:43.827Z,11.50
2018-10-19T03:33:10.751Z,11.30
2018-10-19T03:35:37.714Z,11.30
2018-10-19T03:38:05.064Z,11.40
2018-10-19T03:40:32.017Z,11.30
2018-10-19T03:42:58.981Z,11.30
2018-10-19T03:45:26.055Z,11.10
2018-10-19T03:47:52.998Z,11.20
2018-10-19T03:50:19.959Z,11.30
2018-10-19T03:52:46.886Z,11.30
2018-10-19T03:55:13.833Z,11.30
2018-10-19T03:57:40.809Z,11.30
2018-10-19T04:00:07.787Z,12.60
2018-10-19T04:02:34.714Z,9.40
2018-10-19T04:05:01.673Z,7.90
2018-10-19T04:07:28.666Z,11.20
2018-10-19T04:09:55.624Z,11.10
2018-10-19T04:12:22.579Z,11.20
2018-10-19T04:14:49.515Z,11.20
2018-10-19T04:17:16.475Z,11.10
2018-10-19T04:19:43.441Z,10.90
2018-10-19T04:22:10.639Z,11.10
2018-10-19T04:24:37.589Z,10.90
2018-10-19T04:27:05.027Z,11.00
2018-10-19T04:29:31.910Z,11.00
2018-10-19T04:31:58.858Z,11.00
2018-10-19T04:34:25.822Z,11.00
2018-10-19T04:36:59.465Z,11.00
2018-10-19T04:39:26.419Z,11.10
2018-10-19T04:41:53.437Z,11.10
2018-10-19T04:44:20.334Z,11.30
2018-10-19T04:46:47.289Z,11.20
2018-10-19T04:49:14.250Z,11.20
2018-10-19T04:51:41.225Z,11.10
2018-10-19T04:54:08.169Z,11.10
2018-10-19T04:56:35.110Z,11.10
2018-10-19T04:59:02.092Z,11.00
2018-10-19T05:01:29.006Z,11.00
2018-10-19T05:03:55.968Z,11.00
2018-10-19T05:06:22.952Z,10.90
2018-10-19T05:08:49.851Z,9.80
2018-10-19T05:11:16.901Z,10.70
2018-10-19T05:13:43.780Z,10.80
2018-10-19T05:16:10.702Z,10.70
2018-10-19T05:18:37.658Z,10.90
2018-10-19T05:21:04.614Z,10.70
2018-10-19T05:23:32.274Z,9.40
2018-10-19T05:25:59.251Z,10.60
2018-10-19T05:28:26.187Z,10.70
2018-10-19T05:30:53.156Z,11.00
2018-10-19T05:33:20.126Z,10.80
2018-10-19T05:35:47.074Z,10.80
2018-10-19T05:38:14.057Z,10.80
2018-10-19T05:40:41.054Z,10.70
2018-10-19T05:43:08.002Z,10.70
2018-10-19T05:45:34.962Z,10.70
2018-10-19T05:48:01.933Z,10.70
2018-10-19T05:50:28.880Z,10.80
2018-10-19T05:52:55.822Z,10.70
2018-10-19T05:55:22.854Z,10.80
2018-10-19T05:57:49.790Z,10.70
2018-10-19T06:00:16.747Z,10.70
2018-10-19T06:02:43.811Z,10.60
2018-10-19T06:05:10.748Z,10.60
2018-10-19T06:07:37.654Z,10.60
2018-10-19T06:10:05.285Z,10.60
2018-10-19T06:12:32.242Z,10.60
2018-10-19T06:14:59.178Z,10.60
2018-10-19T06:17:26.122Z,10.50
2018-10-19T06:19:53.068Z,10.60
2018-10-19T06:22:20.026Z,10.60
2018-10-19T06:24:47.599Z,10.60
2018-10-19T06:27:14.564Z,10.60
2018-10-19T06:29:41.505Z,10.60
2018-10-19T06:34:35.433Z,10.70
2018-10-19T06:37:02.389Z,10.70
2018-10-19T06:39:29.375Z,10.80
2018-10-19T06:41:56.327Z,10.90
2018-10-19T06:44:23.269Z,11.00
2018-10-19T06:46:50.307Z,11.00
2018-10-19T06:49:17.197Z,11.00
2018-10-19T06:51:44.177Z,11.00
2018-10-19T06:54:11.126Z,11.10
2018-10-19T06:56:38.063Z,11.20
2018-10-19T06:59:05.076Z,11.20
2018-10-19T07:01:31.982Z,11.30
2018-10-19T07:03:58.927Z,11.40
2018-10-19T07:06:25.867Z,11.40
2018-10-19T07:08:52.826Z,11.40
2018-10-19T07:11:19.775Z,11.40
2018-10-19T07:13:46.722Z,11.60
2018-10-19T07:16:13.693Z,11.60
2018-10-19T07:18:40.629Z,11.40
2018-10-19T07:21:07.612Z,11.80
2018-10-19T07:23:34.571Z,11.80
2018-10-19T07:26:02.168Z,11.90
2018-10-19T07:28:29.101Z,11.90
2018-10-19T07:30:56.070Z,12.10
2018-10-19T07:33:23.013Z,12.20
2018-10-19T07:35:49.969Z,12.20
2018-10-19T07:38:17.047Z,12.30
2018-10-19T07:40:43.865Z,12.40
2018-10-19T07:43:10.818Z,12.50
2018-10-19T07:45:37.802Z,12.60
2018-10-19T07:48:04.929Z,12.60
2018-10-19T07:50:31.678Z,12.70
2018-10-19T07:52:58.659Z,12.90
2018-10-19T07:55:25.582Z,12.20
2018-10-19T07:57:52.526Z,13.20
2018-10-19T08:00:19.547Z,13.30
2018-10-19T08:02:46.481Z,13.30
2018-10-19T08:05:13.510Z,13.00
2018-10-19T08:07:40.430Z,13.60
2018-10-19T08:10:08.494Z,13.60
2018-10-19T08:12:35.468Z,13.70
2018-10-19T08:15:02.478Z,14.00
2018-10-19T08:17:29.419Z,14.00
2018-10-19T08:19:56.404Z,14.00
2018-10-19T08:22:23.368Z,14.10
2018-10-19T08:24:51.304Z,14.20
2018-10-19T08:27:18.822Z,14.30
2018-10-19T08:29:45.756Z,14.50
2018-10-19T08:32:12.732Z,14.60
2018-10-19T08:34:39.649Z,14.80
2018-10-19T08:37:06.617Z,15.10
2018-10-19T08:39:33.547Z,15.10
2018-10-19T08:42:00.496Z,15.30
2018-10-19T08:44:27.469Z,15.80
2018-10-19T08:46:54.465Z,16.10
2018-10-19T08:49:21.362Z,16.40
2018-10-19T08:51:48.338Z,17.10
2018-10-19T08:54:15.279Z,17.80
2018-10-19T08:56:42.217Z,18.20
2018-10-19T08:59:09.252Z,18.30
2018-10-19T09:01:36.135Z,18.60
2018-10-19T09:04:03.251Z,18.10
2018-10-19T09:06:30.246Z,19.20
2018-10-19T09:08:57.229Z,19.30
2018-10-19T09:11:24.356Z,19.60
2018-10-19T09:13:51.231Z,19.90
2018-10-19T09:16:18.193Z,20.20
2018-10-19T09:18:45.164Z,19.90
2018-10-19T09:21:12.218Z,20.20
2018-10-19T09:23:39.106Z,20.20
2018-10-19T09:26:06.095Z,20.50
2018-10-19T09:28:33.514Z,20.40
2018-10-19T09:31:00.465Z,20.40
2018-10-19T09:33:27.448Z,20.30
2018-10-19T09:35:54.452Z,20.50
2018-10-19T09:38:21.354Z,21.10
2018-10-19T09:40:48.368Z,21.70
2018-10-19T09:43:15.386Z,22.10
2018-10-19T09:45:42.224Z,22.10
2018-10-19T09:48:09.175Z,22.20
2018-10-19T09:50:36.142Z,22.50
2018-10-19T09:53:03.234Z,22.40
2018-10-19T09:55:30.363Z,21.40
2018-10-19T09:57:57.330Z,23.20
2018-10-19T10:00:30.098Z,22.90
2018-10-19T10:02:57.068Z,23.10
2018-10-19T10:05:24.018Z,23.10
2018-10-19T10:07:50.990Z,22.90
2018-10-19T10:10:17.937Z,23.30
2018-10-19T10:12:44.922Z,23.20
2018-10-19T10:15:11.981Z,22.90
2018-10-19T10:17:38.827Z,23.10
2018-10-19T10:20:06.559Z,22.30
2018-10-19T10:22:33.529Z,24.00
2018-10-19T10:25:00.560Z,23.90
2018-10-19T10:27:27.462Z,24.40
2018-10-19T10:29:54.694Z,24.70
2018-10-19T10:32:21.717Z,24.60
2018-10-19T10:34:48.680Z,24.80
2018-10-19T10:37:15.655Z,24.60
2018-10-19T10:39:42.590Z,24.80
2018-10-19T10:42:09.569Z,24.60
2018-10-19T10:44:36.491Z,24.50
2018-10-19T10:47:03.573Z,24.40
2018-10-19T10:49:30.447Z,24.00
2018-10-19T10:51:57.414Z,24.40
2018-10-19T10:54:24.364Z,24.70
2018-10-19T10:56:51.345Z,24.40
2018-10-19T10:59:18.301Z,24.70
2018-10-19T11:01:45.241Z,22.10
2018-10-19T11:04:12.515Z,22.30
2018-10-19T11:06:39.334Z,24.80
2018-10-19T11:09:08.666Z,24.40
2018-10-19T11:11:35.643Z,24.70
2018-10-19T11:14:02.597Z,24.60
2018-10-19T11:16:29.545Z,25.10
2018-10-19T11:18:56.547Z,25.10
2018-10-19T11:21:23.500Z,25.20
2018-10-19T11:23:50.508Z,25.20
2018-10-19T11:26:17.446Z,25.00
2018-10-19T11:28:44.394Z,25.10
2018-10-19T11:31:11.849Z,23.20
2018-10-19T11:33:38.749Z,25.00
2018-10-19T11:36:05.677Z,25.20
2018-10-19T11:38:32.610Z,24.70
2018-10-19T11:40:59.567Z,24.60
2018-10-19T11:43:26.515Z,24.40
2018-10-19T11:45:53.463Z,24.40
2018-10-19T11:48:20.419Z,24.50
2018-10-19T11:50:47.365Z,24.30
2018-10-19T11:53:14.337Z,24.20
2018-10-19T11:55:41.330Z,24.10
2018-10-19T11:58:08.329Z,23.90
2018-10-19T12:00:35.213Z,23.90
2018-10-19T12:03:02.162Z,23.70
2018-10-19T12:05:29.120Z,23.50
2018-10-19T12:07:56.056Z,22.30
2018-10-19T12:10:23.031Z,23.30
2018-10-19T12:12:49.966Z,23.00
2018-10-19T12:15:17.277Z,22.50
2018-10-19T12:17:44.647Z,22.60
2018-10-19T12:20:13.122Z,22.50
2018-10-19T12:22:40.077Z,22.70
2018-10-19T12:25:08.265Z,23.00
2018-10-19T12:27:35.223Z,22.50
2018-10-19T12:30:02.174Z,22.90
2018-10-19T12:32:29.704Z,22.70
2018-10-19T12:34:56.650Z,22.60
2018-10-19T12:37:23.595Z,22.60
2018-10-19T12:39:50.563Z,22.50
2018-10-19T12:42:17.501Z,22.60
2018-10-19T12:44:44.446Z,22.60
2018-10-19T12:47:23.062Z,22.50
2018-10-19T12:49:49.981Z,22.40
2018-10-19T12:52:16.939Z,22.40
2018-10-19T12:54:43.912Z,22.30
2018-10-19T12:57:10.919Z,22.40
2018-10-19T12:59:37.870Z,22.30
2018-10-19T13:02:10.898Z,22.20
2018-10-19T13:04:37.834Z,22.20
2018-10-19T13:07:06.059Z,22.10
2018-10-19T13:09:33.010Z,22.10
2018-10-19T13:11:59.974Z,22.10
2018-10-19T13:14:26.954Z,22.20
2018-10-19T13:16:53.927Z,22.20
2018-10-19T13:19:20.882Z,22.10
2018-10-19T13:21:47.831Z,22.10
2018-10-19T13:24:14.849Z,21.90
2018-10-19T13:26:41.746Z,21.90
2018-10-19T13:29:08.692Z,21.80
2018-10-19T13:31:35.648Z,21.60
2018-10-19T13:34:03.092Z,21.40
2018-10-19T13:36:30.031Z,21.30
2018-10-19T13:38:57.033Z,21.40
2018-10-19T13:41:23.942Z,21.40
2018-10-19T13:43:50.894Z,21.40
2018-10-19T13:46:17.845Z,21.30
2018-10-19T13:48:44.786Z,21.30
2018-10-19T13:51:11.821Z,21.30
2018-10-19T13:53:38.701Z,21.30
2018-10-19T13:56:05.659Z,21.30
2018-10-19T13:58:32.654Z,21.20
2018-10-19T14:00:59.574Z,21.20
2018-10-19T14:03:26.519Z,21.20
2018-10-19T14:05:53.477Z,21.00
2018-10-19T14:08:20.458Z,20.90
2018-10-19T14:10:47.428Z,20.80
2018-10-19T14:13:14.393Z,20.80
2018-10-19T14:15:41.364Z,20.80
2018-10-19T14:18:08.308Z,20.80
2018-10-19T14:20:35.258Z,20.80
2018-10-19T14:23:02.249Z,20.70
2018-10-19T14:25:29.147Z,19.20
2018-10-19T14:27:56.087Z,20.60
2018-10-19T14:30:23.078Z,20.50
2018-10-19T14:32:50.030Z,20.60
2018-10-19T14:35:17.423Z,20.20
2018-10-19T14:37:45.023Z,20.50
2018-10-19T14:40:13.303Z,20.50
2018-10-19T14:42:40.962Z,20.40
2018-10-19T14:45:09.240Z,19.30
2018-10-19T14:47:36.932Z,20.50
2018-10-19T14:50:04.463Z,17.60
2018-10-19T14:52:31.458Z,20.60
2018-10-19T14:54:58.498Z,20.60
2018-10-19T14:57:25.461Z,20.60
2018-10-19T14:59:52.627Z,20.30
2018-10-19T15:02:20.213Z,20.60
2018-10-19T15:04:47.160Z,20.30
2018-10-19T15:07:14.106Z,20.50
2018-10-19T15:10:00.946Z,18.80
2018-10-19T15:13:07.016Z,20.50
2018-10-19T15:15:34.032Z,22.70
2018-10-19T15:18:01.001Z,20.30
2018-10-19T15:20:27.955Z,20.30
2018-10-19T15:22:54.938Z,20.30
2018-10-19T15:25:21.874Z,20.20
2018-10-19T15:27:48.897Z,20.10
2018-10-19T15:30:17.780Z,18.40
2018-10-19T15:32:44.627Z,20.00
2018-10-19T15:35:11.675Z,20.00
2018-10-19T15:37:39.742Z,20.00
2018-10-19T15:40:07.578Z,19.90
2018-10-19T15:42:34.564Z,19.90
2018-10-19T15:45:01.582Z,19.70
2018-10-19T15:47:30.798Z,19.60
2018-10-19T15:49:57.910Z,19.60
2018-10-19T15:52:25.001Z,19.60
2018-10-19T15:54:52.651Z,19.60
2018-10-19T15:57:19.973Z,17.20
2018-10-19T15:59:46.989Z,19.40
2018-10-19T16:02:14.505Z,17.80
2018-10-19T16:04:41.608Z,17.90
2018-10-19T16:07:08.618Z,17.50
2018-10-19T16:09:35.640Z,16.70
2018-10-19T16:12:02.738Z,18.80
2018-10-19T16:14:29.751Z,19.10
2018-10-19T16:16:56.724Z,17.60
2018-10-19T16:19:23.760Z,17.80
2018-10-19T16:21:50.811Z,18.80
2018-10-19T16:24:17.781Z,15.90
2018-10-19T16:26:44.853Z,18.50
2018-10-19T16:29:11.797Z,17.00
2018-10-19T16:31:38.892Z,18.40
2018-10-19T16:34:06.117Z,18.30
2018-10-19T16:36:33.073Z,16.70
2018-10-19T16:39:00.592Z,18.20
2018-10-19T16:41:28.035Z,18.10
2018-10-19T16:43:54.947Z,17.30
2018-10-19T16:46:22.059Z,15.90
2018-10-19T16:48:49.003Z,17.80
2018-10-19T16:51:16.118Z,17.80
2018-10-19T16:53:43.142Z,18.50
2018-10-19T16:56:10.254Z,17.80
2018-10-19T16:58:37.221Z,17.90
2018-10-19T17:01:04.288Z,17.80
2018-10-19T17:03:31.255Z,17.80
2018-10-19T17:05:58.207Z,17.80
2018-10-19T17:08:25.133Z,17.80
2018-10-19T17:10:52.457Z,17.70
2018-10-19T17:13:19.353Z,17.40
2018-10-19T17:15:46.298Z,17.30
2018-10-19T17:18:13.368Z,17.30
2018-10-19T17:20:40.286Z,17.30
2018-10-19T17:23:07.233Z,17.30
2018-10-19T17:25:34.394Z,17.30
2018-10-19T17:28:01.338Z,17.10
2018-10-19T17:30:28.290Z,17.10
2018-10-19T17:32:55.295Z,16.90
2018-10-19T17:35:22.151Z,17.00
2018-10-19T17:37:49.094Z,14.10
2018-10-19T17:40:16.634Z,17.10
2018-10-19T17:42:43.581Z,17.10
2018-10-19T17:45:10.592Z,17.20
2018-10-19T17:47:37.493Z,17.10
2018-10-19T17:50:04.526Z,17.00
2018-10-19T17:52:31.491Z,17.00
2018-10-19T17:54:58.471Z,16.80
2018-10-19T17:57:25.433Z,16.60
2018-10-19T17:59:52.582Z,16.50
2018-10-19T18:02:19.528Z,13.40
2018-10-19T18:04:46.502Z,16.50
2018-10-19T18:07:13.442Z,16.50
2018-10-19T18:09:40.426Z,16.50
2018-10-19T18:12:07.326Z,16.40
2018-10-19T18:14:34.273Z,16.40
2018-10-19T18:17:01.255Z,16.20
2018-10-19T18:19:28.361Z,16.00
2018-10-19T18:21:55.483Z,15.90
2018-10-19T18:24:22.488Z,15.80
2018-10-19T18:26:49.434Z,15.70
2018-10-19T18:29:16.401Z,15.70
2018-10-19T18:31:43.351Z,15.70
2018-10-19T18:34:10.301Z,15.60
2018-10-19T18:36:37.759Z,15.70
2018-10-19T18:39:07.615Z,15.60
2018-10-19T18:41:35.092Z,15.50
2018-10-19T18:44:02.085Z,15.50
2018-10-19T18:46:28.986Z,15.40
2018-10-19T18:48:55.942Z,15.30
2018-10-19T18:51:22.886Z,15.30
2018-10-19T18:53:49.850Z,15.30
2018-10-19T18:56:16.889Z,15.30
2018-10-19T18:58:43.738Z,15.40
2018-10-19T19:01:10.702Z,15.40
2018-10-19T19:03:37.659Z,15.30
2018-10-19T19:06:04.606Z,15.20
2018-10-19T19:08:31.562Z,15.10
2018-10-19T19:10:58.518Z,15.10
2018-10-19T19:13:30.691Z,14.70
2018-10-19T19:15:58.002Z,14.90
2018-10-19T19:18:25.002Z,15.00
2018-10-19T19:20:51.992Z,15.00
2018-10-19T19:23:19.034Z,15.10
2018-10-19T19:25:51.871Z,15.00
2018-10-19T19:28:18.810Z,14.90
2018-10-19T19:30:45.790Z,14.70
2018-10-19T19:33:18.602Z,14.60
2018-10-19T19:35:45.538Z,14.70
2018-10-19T19:38:12.542Z,14.80
2018-10-19T19:40:45.274Z,14.90
2018-10-19T19:43:12.862Z,14.90
2018-10-19T19:45:39.815Z,15.00
2018-10-19T19:48:12.454Z,14.90
2018-10-19T19:50:39.389Z,14.90
2018-10-19T19:53:06.374Z,14.90
2018-10-19T19:55:33.275Z,14.80
2018-10-19T19:58:00.350Z,14.70
2018-10-19T20:00:27.362Z,14.50
2018-10-19T20:02:54.302Z,14.40
2018-10-19T20:05:21.223Z,14.40
2018-10-19T20:07:48.191Z,14.40
2018-10-19T20:10:15.306Z,14.50
2018-10-19T20:12:42.250Z,14.60
2018-10-19T20:15:09.773Z,14.50
2018-10-19T20:17:36.720Z,14.50
2018-10-19T20:20:04.918Z,14.10
2018-10-19T20:22:31.830Z,14.30
2018-10-19T20:24:58.755Z,14.30
2018-10-19T20:27:25.685Z,14.20
2018-10-19T20:29:52.638Z,11.10
2018-10-19T20:32:19.684Z,14.00
2018-10-19T20:34:46.535Z,14.00
2018-10-19T20:37:13.502Z,14.00
2018-10-19T20:39:40.453Z,14.00
2018-10-19T20:42:07.391Z,13.90
2018-10-19T20:44:34.804Z,13.90
2018-10-19T20:47:01.800Z,13.90
2018-10-19T20:49:28.746Z,14.00
2018-10-19T20:51:55.678Z,13.90
2018-10-19T20:54:22.617Z,13.90
2018-10-19T20:56:49.754Z,13.80
2018-10-19T20:59:16.849Z,14.90
2018-10-19T21:01:43.658Z,13.60
2018-10-19T21:04:10.621Z,13.60
2018-10-19T21:06:37.563Z,13.70
2018-10-19T21:09:07.124Z,13.70
2018-10-19T21:11:34.375Z,14.70
2018-10-19T21:14:01.452Z,13.60
2018-10-19T21:16:28.337Z,13.50
2018-10-19T21:18:55.355Z,13.10
2018-10-19T21:21:22.367Z,13.40
2018-10-19T21:23:49.349Z,13.40
2018-10-19T21:26:16.500Z,13.40
2018-10-19T21:28:43.356Z,13.30
2018-10-19T21:31:10.325Z,13.20
2018-10-19T21:33:37.342Z,13.20
2018-10-19T21:36:04.399Z,13.10
2018-10-19T21:38:31.379Z,13.20
2018-10-19T21:40:58.372Z,13.10
2018-10-19T21:43:25.378Z,13.10
2018-10-19T21:45:52.919Z,13.10
2018-10-19T21:48:19.876Z,13.10
2018-10-19T21:50:46.851Z,13.10
2018-10-19T21:53:13.899Z,13.00
2018-10-19T21:55:40.809Z,9.40
2018-10-19T21:58:07.778Z,12.80
2018-10-19T22:00:34.722Z,9.80
2018-10-19T22:03:01.862Z,12.80
2018-10-19T22:05:28.796Z,12.80
2018-10-19T22:07:55.774Z,12.80
2018-10-19T22:10:22.682Z,12.80
2018-10-19T22:12:50.523Z,12.70
2018-10-19T22:15:17.692Z,12.70
2018-10-19T22:17:44.732Z,12.60
2018-10-19T22:20:11.697Z,12.80
2018-10-19T22:22:38.753Z,12.60
2018-10-19T22:25:05.753Z,12.70
2018-10-19T22:27:32.756Z,12.70
2018-10-19T22:29:59.702Z,12.70
2018-10-19T22:32:26.780Z,12.70
2018-10-19T22:34:53.785Z,12.70
2018-10-19T22:37:20.859Z,12.70
2018-10-19T22:39:47.815Z,12.70
2018-10-19T22:42:14.802Z,12.60
2018-10-19T22:44:41.751Z,12.60
2018-10-19T22:47:09.199Z,12.50
2018-10-19T22:49:36.172Z,12.60
2018-10-19T22:52:03.144Z,12.60
2018-10-19T22:54:30.089Z,12.60
2018-10-19T22:56:57.083Z,12.50
2018-10-19T22:59:24.019Z,12.50
2018-10-19T23:01:50.961Z,12.40
2018-10-19T23:04:17.936Z,12.50
2018-10-19T23:06:45.023Z,12.60
2018-10-19T23:09:11.980Z,12.20
2018-10-19T23:11:38.928Z,12.50
2018-10-19T23:14:06.259Z,12.40
2018-10-19T23:16:33.540Z,12.40
2018-10-19T23:19:00.736Z,12.30
2018-10-19T23:21:27.678Z,12.20
2018-10-19T23:23:54.687Z,12.10
2018-10-19T23:26:21.696Z,12.10
2018-10-19T23:28:48.692Z,12.20
2018-10-19T23:31:15.684Z,12.20
2018-10-19T23:33:43.048Z,12.10
2018-10-19T23:36:09.983Z,12.00
2018-10-19T23:38:36.936Z,12.00
2018-10-19T23:41:03.925Z,12.10
2018-10-19T23:43:30.875Z,12.10
2018-10-19T23:45:57.829Z,11.90
2018-10-19T23:48:25.349Z,11.80
2018-10-19T23:50:52.308Z,12.00
2018-10-19T23:53:19.263Z,12.10
2018-10-19T23:55:46.227Z,11.90
2018-10-19T23:58:13.182Z,11.70
